sensor_id;sensor_type;location;lat;lon;timestamp;P1;durP1;ratioP1;P2;durP2;ratioP2
48795;SDS011;34607;48.520;-1.330;2022-11-23T07:57:51;2.95;;;1.00;;
48795;SDS011;34607;48.520;-1.330;2022-11-23T08:00:19;4.90;;;1.52;;
48795;SDS011;34607;48.520;-1.330;2022-11-23T08:02:47;4.28;;;1.40;;
48795;SDS011;34607;48.520;-1.330;2022-11-23T08:05:14;4.22;;;1.90;;
48795;SDS011;34607;48.520;-1.330;2022-11-23T08:07:41;5.75;;;1.40;;
48795;SDS011;34607;48.520;-1.330;2022-11-23T08:10:09;6.78;;;2.40;;
48795;SDS011;34607;48.520;-1.330;2022-11-23T08:12:37;5.40;;;1.73;;
48795;SDS011;34607;48.520;-1.330;2022-11-23T08:15:07;7.13;;;2.08;;
48795;SDS011;34607;48.520;-1.330;2022-11-23T08:17:37;8.43;;;2.53;;
48795;SDS011;34607;48.520;-1.330;2022-11-23T08:20:05;7.88;;;1.80;;
48795;SDS011;34607;48.520;-1.330;2022-11-23T08:22:32;10.02;;;1.63;;
48795;SDS011;34607;48.520;-1.330;2022-11-23T08:24:59;6.07;;;1.80;;
48795;SDS011;34607;48.520;-1.330;2022-11-23T08:27:27;8.45;;;2.30;;
48795;SDS011;34607;48.520;-1.330;2022-11-23T08:29:54;10.73;;;2.22;;
48795;SDS011;34607;48.520;-1.330;2022-11-23T08:32:22;6.93;;;2.15;;
48795;SDS011;34607;48.520;-1.330;2022-11-23T08:34:49;12.15;;;2.50;;
48795;SDS011;34607;48.520;-1.330;2022-11-23T08:37:16;10.85;;;2.35;;
48795;SDS011;34607;48.520;-1.330;2022-11-23T08:39:43;6.82;;;2.13;;
48795;SDS011;34607;48.520;-1.330;2022-11-23T08:42:10;9.35;;;2.45;;
48795;SDS011;34607;48.520;-1.330;2022-11-23T08:44:37;9.80;;;2.47;;
48795;SDS011;34607;48.520;-1.330;2022-11-23T08:47:04;11.20;;;2.28;;
48795;SDS011;34607;48.520;-1.330;2022-11-23T08:49:33;8.13;;;1.95;;
48795;SDS011;34607;48.520;-1.330;2022-11-23T08:52:00;16.10;;;3.55;;
48795;SDS011;34607;48.520;-1.330;2022-11-23T08:54:27;10.70;;;2.42;;
48795;SDS011;34607;48.520;-1.330;2022-11-23T08:56:54;10.57;;;2.17;;
48795;SDS011;34607;48.520;-1.330;2022-11-23T08:59:22;10.35;;;2.30;;
48795;SDS011;34607;48.520;-1.330;2022-11-23T09:01:49;12.52;;;2.38;;
48795;SDS011;34607;48.520;-1.330;2022-11-23T09:04:16;10.07;;;2.88;;
48795;SDS011;34607;48.520;-1.330;2022-11-23T09:06:44;12.88;;;2.95;;
48795;SDS011;34607;48.520;-1.330;2022-11-23T09:09:12;14.25;;;3.17;;
48795;SDS011;34607;48.520;-1.330;2022-11-23T09:11:38;7.80;;;2.03;;
48795;SDS011;34607;48.520;-1.330;2022-11-23T09:14:06;13.93;;;2.80;;
48795;SDS011;34607;48.520;-1.330;2022-11-23T09:16:33;9.77;;;2.10;;
48795;SDS011;34607;48.520;-1.330;2022-11-23T09:19:00;11.27;;;2.42;;
48795;SDS011;34607;48.520;-1.330;2022-11-23T09:21:27;11.93;;;2.65;;
48795;SDS011;34607;48.520;-1.330;2022-11-23T09:23:59;10.75;;;2.10;;
48795;SDS011;34607;48.520;-1.330;2022-11-23T09:26:26;14.85;;;3.53;;
48795;SDS011;34607;48.520;-1.330;2022-11-23T09:28:54;12.25;;;2.67;;
48795;SDS011;34607;48.520;-1.330;2022-11-23T09:31:21;12.60;;;3.03;;
48795;SDS011;34607;48.520;-1.330;2022-11-23T09:33:51;12.57;;;2.88;;
48795;SDS011;34607;48.520;-1.330;2022-11-23T09:36:18;16.33;;;2.72;;
48795;SDS011;34607;48.520;-1.330;2022-11-23T09:38:47;11.48;;;3.05;;
48795;SDS011;34607;48.520;-1.330;2022-11-23T09:41:19;10.02;;;2.45;;
48795;SDS011;34607;48.520;-1.330;2022-11-23T09:44:02;16.90;;;2.92;;
48795;SDS011;34607;48.520;-1.330;2022-11-23T09:46:36;10.90;;;2.53;;
48795;SDS011;34607;48.520;-1.330;2022-11-23T09:49:12;13.27;;;2.83;;
48795;SDS011;34607;48.520;-1.330;2022-11-23T09:51:41;18.45;;;3.38;;
48795;SDS011;34607;48.520;-1.330;2022-11-23T09:54:13;13.02;;;3.20;;
48795;SDS011;34607;48.520;-1.330;2022-11-23T09:56:49;18.02;;;3.78;;
48795;SDS011;34607;48.520;-1.330;2022-11-23T09:59:21;16.63;;;3.00;;
48795;SDS011;34607;48.520;-1.330;2022-11-23T10:02:04;17.92;;;3.80;;
48795;SDS011;34607;48.520;-1.330;2022-11-23T10:04:32;26.45;;;4.30;;
48795;SDS011;34607;48.520;-1.330;2022-11-23T10:07:02;19.30;;;3.72;;
48795;SDS011;34607;48.520;-1.330;2022-11-23T10:09:39;24.60;;;4.15;;
48795;SDS011;34607;48.520;-1.330;2022-11-23T10:12:29;16.95;;;3.65;;
48795;SDS011;34607;48.520;-1.330;2022-11-23T10:15:11;16.55;;;3.72;;
48795;SDS011;34607;48.520;-1.330;2022-11-23T10:17:46;19.58;;;4.45;;
48795;SDS011;34607;48.520;-1.330;2022-11-23T10:20:30;18.52;;;3.28;;
48795;SDS011;34607;48.520;-1.330;2022-11-23T10:23:11;24.08;;;4.93;;
48795;SDS011;34607;48.520;-1.330;2022-11-23T10:25:45;20.67;;;3.85;;
48795;SDS011;34607;48.520;-1.330;2022-11-23T10:28:17;16.30;;;3.80;;
48795;SDS011;34607;48.520;-1.330;2022-11-23T10:30:46;21.40;;;4.57;;
48795;SDS011;34607;48.520;-1.330;2022-11-23T10:33:21;14.73;;;4.53;;
48795;SDS011;34607;48.520;-1.330;2022-11-23T10:35:55;17.65;;;3.85;;
48795;SDS011;34607;48.520;-1.330;2022-11-23T10:38:24;15.85;;;4.40;;
48795;SDS011;34607;48.520;-1.330;2022-11-23T10:40:58;21.27;;;4.20;;
48795;SDS011;34607;48.520;-1.330;2022-11-23T10:43:30;17.35;;;4.00;;
48795;SDS011;34607;48.520;-1.330;2022-11-23T10:49:07;20.42;;;4.00;;
48795;SDS011;34607;48.520;-1.330;2022-11-23T10:51:38;20.35;;;4.38;;
48795;SDS011;34607;48.520;-1.330;2022-11-23T10:54:15;21.45;;;4.57;;
48795;SDS011;34607;48.520;-1.330;2022-11-23T10:56:45;22.17;;;4.05;;
48795;SDS011;34607;48.520;-1.330;2022-11-23T10:59:26;21.27;;;3.72;;
48795;SDS011;34607;48.520;-1.330;2022-11-23T11:01:58;17.92;;;3.75;;
48795;SDS011;34607;48.520;-1.330;2022-11-23T11:04:27;26.35;;;4.75;;
48795;SDS011;34607;48.520;-1.330;2022-11-23T11:07:08;22.92;;;4.63;;
48795;SDS011;34607;48.520;-1.330;2022-11-23T11:09:47;21.33;;;5.18;;
48795;SDS011;34607;48.520;-1.330;2022-11-23T11:12:15;20.75;;;4.85;;
48795;SDS011;34607;48.520;-1.330;2022-11-23T11:14:54;23.02;;;5.47;;
48795;SDS011;34607;48.520;-1.330;2022-11-23T11:17:29;23.30;;;5.13;;
48795;SDS011;34607;48.520;-1.330;2022-11-23T11:19:57;17.17;;;4.50;;
48795;SDS011;34607;48.520;-1.330;2022-11-23T11:22:26;19.92;;;4.43;;
48795;SDS011;34607;48.520;-1.330;2022-11-23T11:24:58;19.45;;;4.70;;
48795;SDS011;34607;48.520;-1.330;2022-11-23T11:27:25;23.58;;;5.03;;
48795;SDS011;34607;48.520;-1.330;2022-11-23T11:29:57;22.52;;;4.43;;
48795;SDS011;34607;48.520;-1.330;2022-11-23T11:32:35;19.67;;;4.50;;
48795;SDS011;34607;48.520;-1.330;2022-11-23T11:35:12;15.77;;;5.03;;
48795;SDS011;34607;48.520;-1.330;2022-11-23T11:37:48;16.25;;;4.25;;
48795;SDS011;34607;48.520;-1.330;2022-11-23T11:40:18;18.73;;;3.97;;
48795;SDS011;34607;48.520;-1.330;2022-11-23T11:42:52;16.90;;;4.35;;
48795;SDS011;34607;48.520;-1.330;2022-11-23T11:45:25;19.15;;;4.38;;
48795;SDS011;34607;48.520;-1.330;2022-11-23T11:47:58;19.15;;;4.57;;
48795;SDS011;34607;48.520;-1.330;2022-11-23T11:50:31;16.08;;;3.55;;
48795;SDS011;34607;48.520;-1.330;2022-11-23T11:53:05;23.17;;;6.35;;
48795;SDS011;34607;48.520;-1.330;2022-11-23T11:55:43;23.77;;;4.50;;
48795;SDS011;34607;48.520;-1.330;2022-11-23T11:58:16;19.73;;;4.18;;
48795;SDS011;34607;48.520;-1.330;2022-11-23T12:00:45;19.52;;;4.20;;
48795;SDS011;34607;48.520;-1.330;2022-11-23T12:03:17;14.57;;;4.38;;
48795;SDS011;34607;48.520;-1.330;2022-11-23T12:05:48;11.95;;;3.30;;
48795;SDS011;34607;48.520;-1.330;2022-11-23T12:08:18;19.65;;;4.65;;
48795;SDS011;34607;48.520;-1.330;2022-11-23T12:10:50;18.40;;;4.10;;
48795;SDS011;34607;48.520;-1.330;2022-11-23T12:13:20;19.45;;;4.00;;
48795;SDS011;34607;48.520;-1.330;2022-11-23T12:15:52;16.85;;;3.92;;
48795;SDS011;34607;48.520;-1.330;2022-11-23T12:21:31;18.73;;;4.38;;
48795;SDS011;34607;48.520;-1.330;2022-11-23T12:24:15;17.45;;;4.00;;
48795;SDS011;34607;48.520;-1.330;2022-11-23T12:26:52;14.13;;;3.88;;
48795;SDS011;34607;48.520;-1.330;2022-11-23T12:29:26;21.15;;;4.63;;
48795;SDS011;34607;48.520;-1.330;2022-11-23T12:32:11;13.40;;;3.42;;
48795;SDS011;34607;48.520;-1.330;2022-11-23T12:37:45;17.40;;;3.42;;
48795;SDS011;34607;48.520;-1.330;2022-11-23T12:40:27;15.95;;;4.10;;
48795;SDS011;34607;48.520;-1.330;2022-11-23T12:43:08;18.63;;;4.10;;
48795;SDS011;34607;48.520;-1.330;2022-11-23T12:45:43;16.80;;;3.60;;
48795;SDS011;34607;48.520;-1.330;2022-11-23T12:48:25;14.43;;;3.47;;
48795;SDS011;34607;48.520;-1.330;2022-11-23T12:51:01;15.68;;;3.10;;
48795;SDS011;34607;48.520;-1.330;2022-11-23T12:53:40;14.38;;;3.65;;
48795;SDS011;34607;48.520;-1.330;2022-11-23T12:56:16;10.07;;;3.00;;
48795;SDS011;34607;48.520;-1.330;2022-11-23T12:58:56;17.20;;;4.53;;
48795;SDS011;34607;48.520;-1.330;2022-11-23T13:01:25;17.25;;;3.47;;
48795;SDS011;34607;48.520;-1.330;2022-11-23T13:10:14;13.98;;;3.75;;
48795;SDS011;34607;48.520;-1.330;2022-11-23T13:12:55;17.00;;;3.70;;
48795;SDS011;34607;48.520;-1.330;2022-11-23T13:15:40;20.95;;;3.97;;
48795;SDS011;34607;48.520;-1.330;2022-11-23T13:18:23;20.10;;;4.43;;
48795;SDS011;34607;48.520;-1.330;2022-11-23T13:21:13;18.55;;;3.53;;
48795;SDS011;34607;48.520;-1.330;2022-11-23T13:23:48;20.63;;;4.30;;
48795;SDS011;34607;48.520;-1.330;2022-11-23T13:26:16;19.27;;;4.70;;
48795;SDS011;34607;48.520;-1.330;2022-11-23T13:28:44;21.38;;;4.28;;
48795;SDS011;34607;48.520;-1.330;2022-11-23T13:31:20;16.17;;;3.80;;
48795;SDS011;34607;48.520;-1.330;2022-11-23T13:33:52;20.55;;;4.72;;
48795;SDS011;34607;48.520;-1.330;2022-11-23T13:42:25;17.30;;;4.82;;
48795;SDS011;34607;48.520;-1.330;2022-11-23T13:50:56;17.40;;;4.32;;
48795;SDS011;34607;48.520;-1.330;2022-11-23T13:53:27;18.83;;;4.05;;
48795;SDS011;34607;48.520;-1.330;2022-11-23T13:56:00;21.30;;;4.70;;
48795;SDS011;34607;48.520;-1.330;2022-11-23T13:58:49;23.70;;;6.30;;
48795;SDS011;34607;48.520;-1.330;2022-11-23T14:04:18;24.83;;;5.30;;
48795;SDS011;34607;48.520;-1.330;2022-11-23T14:06:47;23.23;;;4.68;;
48795;SDS011;34607;48.520;-1.330;2022-11-23T14:09:22;19.08;;;4.57;;
48795;SDS011;34607;48.520;-1.330;2022-11-23T14:11:59;16.23;;;4.85;;
48795;SDS011;34607;48.520;-1.330;2022-11-23T14:14:32;20.77;;;9.10;;
48795;SDS011;34607;48.520;-1.330;2022-11-23T14:20:31;19.88;;;4.15;;
48795;SDS011;34607;48.520;-1.330;2022-11-23T14:23:13;20.33;;;4.57;;
48795;SDS011;34607;48.520;-1.330;2022-11-23T14:26:06;17.88;;;5.20;;
48795;SDS011;34607;48.520;-1.330;2022-11-23T14:28:48;15.35;;;5.10;;
48795;SDS011;34607;48.520;-1.330;2022-11-23T14:31:29;14.80;;;6.20;;
48795;SDS011;34607;48.520;-1.330;2022-11-23T14:34:12;15.68;;;4.18;;
48795;SDS011;34607;48.520;-1.330;2022-11-23T14:36:50;17.13;;;4.43;;
48795;SDS011;34607;48.520;-1.330;2022-11-23T14:39:30;19.38;;;5.18;;
48795;SDS011;34607;48.520;-1.330;2022-11-23T14:42:12;22.88;;;4.70;;
48795;SDS011;34607;48.520;-1.330;2022-11-23T14:44:42;21.02;;;6.30;;
48795;SDS011;34607;48.520;-1.330;2022-11-23T14:47:10;19.25;;;5.60;;
48795;SDS011;34607;48.520;-1.330;2022-11-23T14:49:47;17.60;;;5.43;;
48795;SDS011;34607;48.520;-1.330;2022-11-23T14:52:16;19.05;;;5.85;;
48795;SDS011;34607;48.520;-1.330;2022-11-23T14:54:46;20.83;;;6.28;;
48795;SDS011;34607;48.520;-1.330;2022-11-23T14:57:16;20.90;;;5.13;;
48795;SDS011;34607;48.520;-1.330;2022-11-23T14:59:46;18.83;;;3.92;;
48795;SDS011;34607;48.520;-1.330;2022-11-23T15:02:16;20.23;;;3.97;;
48795;SDS011;34607;48.520;-1.330;2022-11-23T15:04:51;15.85;;;4.47;;
48795;SDS011;34607;48.520;-1.330;2022-11-23T15:07:24;18.50;;;4.20;;
48795;SDS011;34607;48.520;-1.330;2022-11-23T15:09:55;22.73;;;4.10;;
48795;SDS011;34607;48.520;-1.330;2022-11-23T15:12:41;13.88;;;3.15;;
48795;SDS011;34607;48.520;-1.330;2022-11-23T15:15:15;15.90;;;4.32;;
48795;SDS011;34607;48.520;-1.330;2022-11-23T15:17:53;17.50;;;4.20;;
48795;SDS011;34607;48.520;-1.330;2022-11-23T15:20:22;13.00;;;3.13;;
48795;SDS011;34607;48.520;-1.330;2022-11-23T15:22:52;17.52;;;5.30;;
48795;SDS011;34607;48.520;-1.330;2022-11-23T15:25:19;17.45;;;5.40;;
48795;SDS011;34607;48.520;-1.330;2022-11-23T15:27:48;18.67;;;4.75;;
48795;SDS011;34607;48.520;-1.330;2022-11-23T15:30:16;18.30;;;4.93;;
48795;SDS011;34607;48.520;-1.330;2022-11-23T15:32:52;15.52;;;4.30;;
48795;SDS011;34607;48.520;-1.330;2022-11-23T15:35:22;20.02;;;4.65;;
48795;SDS011;34607;48.520;-1.330;2022-11-23T15:37:54;16.15;;;3.90;;
48795;SDS011;34607;48.520;-1.330;2022-11-23T15:40:21;11.35;;;3.83;;
48795;SDS011;34607;48.520;-1.330;2022-11-23T15:42:54;21.65;;;7.45;;
48795;SDS011;34607;48.520;-1.330;2022-11-23T15:45:34;21.38;;;6.70;;
48795;SDS011;34607;48.520;-1.330;2022-11-23T15:48:03;21.08;;;5.30;;
48795;SDS011;34607;48.520;-1.330;2022-11-23T15:50:34;23.23;;;5.05;;
48795;SDS011;34607;48.520;-1.330;2022-11-23T15:53:12;19.35;;;4.78;;
48795;SDS011;34607;48.520;-1.330;2022-11-23T15:55:40;27.92;;;7.38;;
48795;SDS011;34607;48.520;-1.330;2022-11-23T15:58:12;20.00;;;5.35;;
48795;SDS011;34607;48.520;-1.330;2022-11-23T16:00:45;21.80;;;5.30;;
48795;SDS011;34607;48.520;-1.330;2022-11-23T16:03:26;22.35;;;4.75;;
48795;SDS011;34607;48.520;-1.330;2022-11-23T16:06:16;26.98;;;5.20;;
48795;SDS011;34607;48.520;-1.330;2022-11-23T16:08:45;26.42;;;6.40;;
48795;SDS011;34607;48.520;-1.330;2022-11-23T16:11:26;21.52;;;6.68;;
48795;SDS011;34607;48.520;-1.330;2022-11-23T16:14:13;22.88;;;5.97;;
48795;SDS011;34607;48.520;-1.330;2022-11-23T16:16:42;19.20;;;5.22;;
48795;SDS011;34607;48.520;-1.330;2022-11-23T16:19:19;22.85;;;6.78;;
48795;SDS011;34607;48.520;-1.330;2022-11-23T16:21:49;24.30;;;5.50;;
48795;SDS011;34607;48.520;-1.330;2022-11-23T16:24:20;21.08;;;5.25;;
48795;SDS011;34607;48.520;-1.330;2022-11-23T16:26:50;22.45;;;6.35;;
48795;SDS011;34607;48.520;-1.330;2022-11-23T16:29:22;26.10;;;7.60;;
48795;SDS011;34607;48.520;-1.330;2022-11-23T16:31:52;17.23;;;5.72;;
48795;SDS011;34607;48.520;-1.330;2022-11-23T16:34:21;19.25;;;5.57;;
48795;SDS011;34607;48.520;-1.330;2022-11-23T16:36:49;18.52;;;5.65;;
48795;SDS011;34607;48.520;-1.330;2022-11-23T16:39:17;28.77;;;5.88;;
48795;SDS011;34607;48.520;-1.330;2022-11-23T16:41:44;22.83;;;4.80;;
48795;SDS011;34607;48.520;-1.330;2022-11-23T16:44:11;26.00;;;5.70;;
48795;SDS011;34607;48.520;-1.330;2022-11-23T16:46:39;26.55;;;5.20;;
48795;SDS011;34607;48.520;-1.330;2022-11-23T16:49:10;18.45;;;4.47;;
48795;SDS011;34607;48.520;-1.330;2022-11-23T16:51:41;19.27;;;5.28;;
48795;SDS011;34607;48.520;-1.330;2022-11-23T16:54:08;21.58;;;4.95;;
48795;SDS011;34607;48.520;-1.330;2022-11-23T16:56:35;21.00;;;5.03;;
48795;SDS011;34607;48.520;-1.330;2022-11-23T16:59:03;25.92;;;6.15;;
48795;SDS011;34607;48.520;-1.330;2022-11-23T17:01:31;20.30;;;6.72;;
48795;SDS011;34607;48.520;-1.330;2022-11-23T17:04:00;25.40;;;6.47;;
48795;SDS011;34607;48.520;-1.330;2022-11-23T17:06:27;28.35;;;6.20;;
48795;SDS011;34607;48.520;-1.330;2022-11-23T17:08:54;26.50;;;5.95;;
48795;SDS011;34607;48.520;-1.330;2022-11-23T17:11:23;20.70;;;6.45;;
48795;SDS011;34607;48.520;-1.330;2022-11-23T17:13:52;30.25;;;6.75;;
48795;SDS011;34607;48.520;-1.330;2022-11-23T17:16:22;22.83;;;5.95;;
48795;SDS011;34607;48.520;-1.330;2022-11-23T17:18:50;33.03;;;6.40;;
48795;SDS011;34607;48.520;-1.330;2022-11-23T17:21:19;24.17;;;6.32;;
48795;SDS011;34607;48.520;-1.330;2022-11-23T17:23:46;25.83;;;6.97;;
48795;SDS011;34607;48.520;-1.330;2022-11-23T17:26:27;32.58;;;6.00;;
48795;SDS011;34607;48.520;-1.330;2022-11-23T17:28:56;26.70;;;8.50;;
48795;SDS011;34607;48.520;-1.330;2022-11-23T17:31:26;27.15;;;8.10;;
48795;SDS011;34607;48.520;-1.330;2022-11-23T17:33:54;22.55;;;6.15;;
48795;SDS011;34607;48.520;-1.330;2022-11-23T17:36:22;29.85;;;8.25;;
48795;SDS011;34607;48.520;-1.330;2022-11-23T17:38:49;23.52;;;5.82;;
48795;SDS011;34607;48.520;-1.330;2022-11-23T17:41:17;27.75;;;6.00;;
48795;SDS011;34607;48.520;-1.330;2022-11-23T17:43:44;29.00;;;6.45;;
48795;SDS011;34607;48.520;-1.330;2022-11-23T17:46:15;24.35;;;6.38;;
48795;SDS011;34607;48.520;-1.330;2022-11-23T17:48:44;36.70;;;7.20;;
48795;SDS011;34607;48.520;-1.330;2022-11-23T17:51:11;19.73;;;6.85;;
48795;SDS011;34607;48.520;-1.330;2022-11-23T17:53:40;34.72;;;8.20;;
48795;SDS011;34607;48.520;-1.330;2022-11-23T17:56:10;31.67;;;6.28;;
48795;SDS011;34607;48.520;-1.330;2022-11-23T17:58:43;33.65;;;7.38;;
48795;SDS011;34607;48.520;-1.330;2022-11-23T18:01:12;27.88;;;6.40;;
48795;SDS011;34607;48.520;-1.330;2022-11-23T18:03:40;28.17;;;6.30;;
48795;SDS011;34607;48.520;-1.330;2022-11-23T18:06:09;26.50;;;6.78;;
48795;SDS011;34607;48.520;-1.330;2022-11-23T18:08:41;27.80;;;6.82;;
48795;SDS011;34607;48.520;-1.330;2022-11-23T18:11:08;26.25;;;6.95;;
48795;SDS011;34607;48.520;-1.330;2022-11-23T18:13:36;35.38;;;6.88;;
48795;SDS011;34607;48.520;-1.330;2022-11-23T18:16:04;22.23;;;5.32;;
48795;SDS011;34607;48.520;-1.330;2022-11-23T18:18:31;33.17;;;6.20;;
48795;SDS011;34607;48.520;-1.330;2022-11-23T18:20:58;27.05;;;5.65;;
48795;SDS011;34607;48.520;-1.330;2022-11-23T18:23:25;28.67;;;6.35;;
48795;SDS011;34607;48.520;-1.330;2022-11-23T18:25:57;24.25;;;5.50;;
48795;SDS011;34607;48.520;-1.330;2022-11-23T18:28:25;27.60;;;5.28;;
48795;SDS011;34607;48.520;-1.330;2022-11-23T18:30:53;29.33;;;5.70;;
48795;SDS011;34607;48.520;-1.330;2022-11-23T18:33:20;36.67;;;6.80;;
48795;SDS011;34607;48.520;-1.330;2022-11-23T18:35:47;27.63;;;6.38;;
48795;SDS011;34607;48.520;-1.330;2022-11-23T18:38:14;27.42;;;6.97;;
48795;SDS011;34607;48.520;-1.330;2022-11-23T18:40:41;21.10;;;5.55;;
48795;SDS011;34607;48.520;-1.330;2022-11-23T18:43:10;23.60;;;5.40;;
48795;SDS011;34607;48.520;-1.330;2022-11-23T18:45:37;30.17;;;6.85;;
48795;SDS011;34607;48.520;-1.330;2022-11-23T18:48:04;30.52;;;6.95;;
48795;SDS011;34607;48.520;-1.330;2022-11-23T18:50:33;31.45;;;6.55;;
48795;SDS011;34607;48.520;-1.330;2022-11-23T18:53:01;30.55;;;6.10;;
48795;SDS011;34607;48.520;-1.330;2022-11-23T18:55:28;27.08;;;6.10;;
48795;SDS011;34607;48.520;-1.330;2022-11-23T18:57:55;32.83;;;10.88;;
48795;SDS011;34607;48.520;-1.330;2022-11-23T19:00:23;26.65;;;9.20;;
48795;SDS011;34607;48.520;-1.330;2022-11-23T19:02:51;26.30;;;6.03;;
48795;SDS011;34607;48.520;-1.330;2022-11-23T19:05:19;27.08;;;6.70;;
48795;SDS011;34607;48.520;-1.330;2022-11-23T19:07:46;22.08;;;6.63;;
48795;SDS011;34607;48.520;-1.330;2022-11-23T19:10:15;26.38;;;6.57;;
48795;SDS011;34607;48.520;-1.330;2022-11-23T19:12:43;23.17;;;5.50;;
48795;SDS011;34607;48.520;-1.330;2022-11-23T19:15:10;27.13;;;6.30;;
48795;SDS011;34607;48.520;-1.330;2022-11-23T19:17:39;29.52;;;6.85;;
48795;SDS011;34607;48.520;-1.330;2022-11-23T19:20:07;23.10;;;6.50;;
48795;SDS011;34607;48.520;-1.330;2022-11-23T19:22:35;49.30;;;22.23;;
48795;SDS011;34607;48.520;-1.330;2022-11-23T19:25:02;25.27;;;7.78;;
48795;SDS011;34607;48.520;-1.330;2022-11-23T19:27:32;29.88;;;6.65;;
48795;SDS011;34607;48.520;-1.330;2022-11-23T19:30:00;23.73;;;6.72;;
48795;SDS011;34607;48.520;-1.330;2022-11-23T19:32:28;30.38;;;7.05;;
48795;SDS011;34607;48.520;-1.330;2022-11-23T19:34:57;21.75;;;5.90;;
48795;SDS011;34607;48.520;-1.330;2022-11-23T19:37:24;25.42;;;6.15;;
48795;SDS011;34607;48.520;-1.330;2022-11-23T19:39:51;24.58;;;5.63;;
48795;SDS011;34607;48.520;-1.330;2022-11-23T19:42:18;24.60;;;7.72;;
48795;SDS011;34607;48.520;-1.330;2022-11-23T19:44:45;30.55;;;7.03;;
48795;SDS011;34607;48.520;-1.330;2022-11-23T19:47:12;26.08;;;6.55;;
48795;SDS011;34607;48.520;-1.330;2022-11-23T19:49:41;28.15;;;6.72;;
48795;SDS011;34607;48.520;-1.330;2022-11-23T19:52:10;38.83;;;8.10;;
48795;SDS011;34607;48.520;-1.330;2022-11-23T19:54:37;34.88;;;8.18;;
48795;SDS011;34607;48.520;-1.330;2022-11-23T19:57:04;29.92;;;7.47;;
48795;SDS011;34607;48.520;-1.330;2022-11-23T19:59:31;33.67;;;7.82;;
48795;SDS011;34607;48.520;-1.330;2022-11-23T20:01:58;26.73;;;7.53;;
48795;SDS011;34607;48.520;-1.330;2022-11-23T20:04:25;36.97;;;8.20;;
48795;SDS011;34607;48.520;-1.330;2022-11-23T20:06:52;27.42;;;6.20;;
48795;SDS011;34607;48.520;-1.330;2022-11-23T20:09:20;27.98;;;7.82;;
48795;SDS011;34607;48.520;-1.330;2022-11-23T20:11:48;38.17;;;7.85;;
48795;SDS011;34607;48.520;-1.330;2022-11-23T20:14:15;34.22;;;7.00;;
48795;SDS011;34607;48.520;-1.330;2022-11-23T20:16:42;30.05;;;6.45;;
48795;SDS011;34607;48.520;-1.330;2022-11-23T20:19:09;31.65;;;5.75;;
48795;SDS011;34607;48.520;-1.330;2022-11-23T20:21:36;23.77;;;6.30;;
48795;SDS011;34607;48.520;-1.330;2022-11-23T20:24:05;36.08;;;7.10;;
48795;SDS011;34607;48.520;-1.330;2022-11-23T20:26:35;33.55;;;6.55;;
48795;SDS011;34607;48.520;-1.330;2022-11-23T20:29:03;25.38;;;5.43;;
48795;SDS011;34607;48.520;-1.330;2022-11-23T20:31:31;34.63;;;8.38;;
48795;SDS011;34607;48.520;-1.330;2022-11-23T20:33:59;23.95;;;6.30;;
48795;SDS011;34607;48.520;-1.330;2022-11-23T20:36:27;27.10;;;6.82;;
48795;SDS011;34607;48.520;-1.330;2022-11-23T20:38:55;32.63;;;6.63;;
48795;SDS011;34607;48.520;-1.330;2022-11-23T20:41:23;25.90;;;5.97;;
48795;SDS011;34607;48.520;-1.330;2022-11-23T20:43:53;28.42;;;5.80;;
48795;SDS011;34607;48.520;-1.330;2022-11-23T20:46:22;28.55;;;5.78;;
48795;SDS011;34607;48.520;-1.330;2022-11-23T20:48:50;25.80;;;5.60;;
48795;SDS011;34607;48.520;-1.330;2022-11-23T20:51:18;26.13;;;5.70;;
48795;SDS011;34607;48.520;-1.330;2022-11-23T20:53:46;20.33;;;5.25;;
48795;SDS011;34607;48.520;-1.330;2022-11-23T20:56:13;22.08;;;5.13;;
48795;SDS011;34607;48.520;-1.330;2022-11-23T20:58:41;21.58;;;4.63;;
48795;SDS011;34607;48.520;-1.330;2022-11-23T21:01:09;17.92;;;4.95;;
48795;SDS011;34607;48.520;-1.330;2022-11-23T21:03:39;19.10;;;4.50;;
48795;SDS011;34607;48.520;-1.330;2022-11-23T21:06:07;22.13;;;5.20;;
48795;SDS011;34607;48.520;-1.330;2022-11-23T21:08:36;20.60;;;4.38;;
48795;SDS011;34607;48.520;-1.330;2022-11-23T21:11:05;19.42;;;3.90;;
48795;SDS011;34607;48.520;-1.330;2022-11-23T21:13:51;15.93;;;3.85;;
48795;SDS011;34607;48.520;-1.330;2022-11-23T21:16:33;14.65;;;3.30;;
48795;SDS011;34607;48.520;-1.330;2022-11-23T21:19:02;13.73;;;3.90;;
48795;SDS011;34607;48.520;-1.330;2022-11-23T21:21:30;15.00;;;2.88;;
48795;SDS011;34607;48.520;-1.330;2022-11-23T21:23:57;16.60;;;4.25;;
48795;SDS011;34607;48.520;-1.330;2022-11-23T21:26:25;12.52;;;3.38;;
48795;SDS011;34607;48.520;-1.330;2022-11-23T21:28:52;17.75;;;3.72;;
48795;SDS011;34607;48.520;-1.330;2022-11-23T21:31:19;16.45;;;4.10;;
48795;SDS011;34607;48.520;-1.330;2022-11-23T21:33:48;25.05;;;4.28;;
48795;SDS011;34607;48.520;-1.330;2022-11-23T21:36:15;16.92;;;3.70;;
48795;SDS011;34607;48.520;-1.330;2022-11-23T21:38:42;14.30;;;4.03;;
48795;SDS011;34607;48.520;-1.330;2022-11-23T21:41:11;12.65;;;3.83;;
48795;SDS011;34607;48.520;-1.330;2022-11-23T21:43:39;11.55;;;4.15;;
48795;SDS011;34607;48.520;-1.330;2022-11-23T21:46:07;14.70;;;3.83;;
48795;SDS011;34607;48.520;-1.330;2022-11-23T21:48:36;20.08;;;4.50;;
48795;SDS011;34607;48.520;-1.330;2022-11-23T21:51:06;15.18;;;4.30;;
48795;SDS011;34607;48.520;-1.330;2022-11-23T21:53:36;18.90;;;3.58;;
48795;SDS011;34607;48.520;-1.330;2022-11-23T21:56:04;19.17;;;4.15;;
48795;SDS011;34607;48.520;-1.330;2022-11-23T21:58:33;17.00;;;3.70;;
48795;SDS011;34607;48.520;-1.330;2022-11-23T22:01:01;8.43;;;3.35;;
48795;SDS011;34607;48.520;-1.330;2022-11-23T22:03:30;16.63;;;4.28;;
48795;SDS011;34607;48.520;-1.330;2022-11-23T22:05:57;13.18;;;4.05;;
48795;SDS011;34607;48.520;-1.330;2022-11-23T22:08:26;18.20;;;3.60;;
48795;SDS011;34607;48.520;-1.330;2022-11-23T22:10:53;9.10;;;2.83;;
48795;SDS011;34607;48.520;-1.330;2022-11-23T22:13:20;15.13;;;3.35;;
48795;SDS011;34607;48.520;-1.330;2022-11-23T22:15:47;12.48;;;3.28;;
48795;SDS011;34607;48.520;-1.330;2022-11-23T22:18:14;15.88;;;4.57;;
48795;SDS011;34607;48.520;-1.330;2022-11-23T22:20:42;18.30;;;3.55;;
48795;SDS011;34607;48.520;-1.330;2022-11-23T22:23:10;13.38;;;2.95;;
